ADDS METAR Data INFO
IDs: Format: Raw Decoded Include TAF

Data at: 0754 UTC 17 Oct 2017

KCPK 170735Z AUTO 33005KT 5SM HZ BKN044 13/06 A3020 RMK AO2 T01250057
KCPK 170715Z AUTO 33005KT 5SM HZ BKN044 12/06 A3020 RMK AO2 T01240062
KCPK 170655Z AUTO 34003KT 7SM BKN042 10/08 A3020 RMK AO2 T00990077
KCPK 170635Z AUTO 00000KT 7SM BKN042 10/08 A3020 RMK AO2 T00960081
KCPK 170615Z AUTO 00000KT 7SM BKN039 BKN047 12/08 A3020 RMK AO2 T01180076
KCPK 170550Z AUTO 35003KT 7SM BKN039 13/07 A3020 RMK AO2 T01280068 10150 20128
KCPK 170535Z AUTO 35003KT 7SM SCT039 SCT044 13/07 A3020 RMK AO2 T01300065
KCPK 170515Z AUTO 33003KT 7SM SCT039 13/06 A3020 RMK AO2 T01320062
KCPK 170455Z AUTO 35003KT 7SM SCT042 14/06 A3019 RMK AO2 T01350060 402020128
KCPK 170435Z AUTO 35005KT 7SM BKN046 14/06 A3020 RMK AO2 T01350061
KCPK 170415Z AUTO 35007KT 7SM SCT046 14/06 A3019 RMK AO2 T01360060
KCPK 170355Z AUTO 35006KT 10SM CLR 14/06 A3019 RMK AO2 T01400060
KCPK 170335Z AUTO 34008KT 7SM SCT049 14/07 A3019 RMK AO2 T01430065
KCPK 170315Z AUTO 34007KT 7SM SCT047 14/07 A3018 RMK AO2 T01420067
KCPK 170255Z AUTO 33006KT 7SM SCT047 14/06 A3018 RMK AO2 T01420064
KCPK 170235Z AUTO 34007KT 7SM CLR 14/07 A3018 RMK AO2 T01410065
KCPK 170215Z AUTO 34004KT 7SM CLR 14/07 A3018 RMK AO2 T01390069
KCPK 170155Z AUTO 33004KT 7SM CLR 13/08 A3017 RMK AO2 T01290075
KCPK 170135Z AUTO 33004KT 7SM CLR 14/07 A3017 RMK AO2 T01350074
KCPK 170115Z AUTO 34005KT 5SM HZ CLR 14/07 A3016 RMK AO2 T01400074
KCPK 170055Z AUTO 34005KT 7SM CLR 14/08 A3015 RMK AO2 T01390075
KCPK 170035Z AUTO 33007KT 7SM CLR 14/08 A3015 RMK AO2 T01420077
KCPK 170015Z AUTO 34006KT 7SM SCT075 15/08 A3015 RMK AO2 T01450077
KCPK 162355Z AUTO 35006KT 7SM SCT075 15/08 A3014 RMK AO2 60002 T01510076 10160 20147
KCPK 162335Z AUTO 35006G14KT 7SM SCT065 15/07 A3013 RMK AO2 T01520072
KCPK 162315Z AUTO 35007KT 7SM OVC065 16/07 A3012 RMK AO2 T01550071
KCPK 162255Z AUTO 34005KT 7SM OVC065 16/07 A3012 RMK AO2 T01550070
KCPK 162235Z AUTO 35006G16KT 7SM OVC055 16/07 A3010 RMK AO2 T01550071
KCPK 162215Z AUTO 35007G17KT 7SM OVC055 16/07 A3010 RMK AO2 T01550072
KCPK 162155Z AUTO 35005G14KT 7SM OVC055 16/09 A3009 RMK AO2 T01550086
KCPK 162135Z AUTO 35005G14KT 7SM OVC055 16/09 A3008 RMK AO2 T01550090
KCPK 162115Z AUTO 35007KT 7SM OVC049 16/09 A3008 RMK AO2 T01550089
KCPK 162055Z AUTO 35007KT 310V020 5SM HZ BKN049 BKN055 OVC065 15/09 A3007 RMK AO2 60002 T01530088
KCPK 162035Z AUTO 34011G14KT 5SM HZ SCT039 BKN047 OVC065 15/09 A3006 RMK AO2 T01510093
KCPK 162015Z AUTO 33009KT 5SM HZ SCT035 OVC044 15/09 A3007 RMK AO2 T01480094
KCPK 161955Z AUTO 33010G16KT 7SM -RA SCT033 OVC042 15/10 A3006 RMK AO2 T01490097
KCPK 161935Z AUTO 35009G19KT 7SM SCT024 BKN033 OVC042 15/11 A3005 RMK AO2 T01530111
KCPK 161915Z AUTO 34005KT 10SM -RA SCT026 OVC033 16/14 A3004 RMK AO2 T01550135
KCPK 161855Z AUTO 34004KT 7SM -RA SCT016 SCT026 OVC033 16/14 A3005 RMK AO2 P0002 T01560140
KCPK 161835Z AUTO 31006KT 10SM -RA SCT016 BKN024 OVC033 16/15 A3005 RMK AO2 P0002 T01570147
KCPK 161815Z AUTO 32007KT 10SM -RA SCT016 BKN028 OVC080 16/14 A3005 RMK AO2 P0001 T01570144
KCPK 161755Z AUTO 33005KT 10SM -RA SCT025 BKN037 OVC095 16/14 A3004 RMK AO2 T01580138 10202 20158
KCPK 161735Z AUTO 34005KT 10SM -RA SCT025 BKN035 OVC075 16/14 A3004 RMK AO2 T01630137
KCPK 161715Z AUTO 35005KT 5SM HZ BKN033 OVC050 17/13 A3004 RMK AO2 T01700126
KCPK 161655Z AUTO 35008G16KT 5SM HZ OVC033 17/12 A3005 RMK AO2 T01720124
KCPK 161635Z AUTO 36008G16KT 5SM HZ SCT015 SCT023 OVC029 17/13 A3005 RMK AO2 T01690125
KCPK 161615Z AUTO 35009G17KT 7SM OVC015 17/14 A3005 RMK AO2 T01700138
KCPK 161555Z AUTO 35006G14KT 7SM BKN015 BKN020 OVC026 18/14 A3005 RMK AO2 T01750142
KCPK 161535Z AUTO 36008G16KT 330V030 7SM OVC015 18/15 A3004 RMK AO2 T01780151
KCPK 161515Z AUTO 34007KT 5SM HZ SCT015 OVC029 18/15 A3004 RMK AO2 LTG DSNT SE T01830151
KCPK 161455Z AUTO 35007KT 7SM OVC027 18/15 A3003 RMK AO2 T01830150
KCPK 161435Z AUTO 35007KT 7SM OVC023 18/15 A3003 RMK AO2 T01800147
KCPK 161415Z AUTO 35007KT 7SM BKN021 OVC030 18/15 A3004 RMK AO2 T01770146
KCPK 161355Z AUTO 36006G14KT 7SM OVC028 18/15 A3004 RMK AO2 T01750146
KCPK 161335Z AUTO 35007G14KT 7SM SCT011 OVC026 17/15 A3002 RMK AO2 LTG DSNT SE T01740153
KCPK 161315Z AUTO 01005KT 7SM BKN013 BKN017 OVC022 17/16 A3002 RMK AO2 T01710160
KCPK 161255Z AUTO 01013G18KT 7SM -RA SCT008 BKN015 OVC025 18/17 A3001 RMK AO2 T01800165
KCPK 161235Z AUTO 28003KT 5SM BR OVC025 20/19 A2998 RMK AO2 T02010193
KCPK 161215Z AUTO 00000KT 5SM BR OVC023 20/19 A2997 RMK AO2 T01960190
KCPK 161155Z AUTO 21003KT 5SM BR OVC023 19/19 A2996 RMK AO2 70001 T01940189 10194 20181
KCPK 161135Z AUTO 20003KT 5SM BR BKN025 OVC030 19/19 A2996 RMK AO2 T01920187
KCPK 161115Z AUTO 00000KT 7SM BKN029 OVC037 19/19 A2995 RMK AO2 T01900185
KCPK 161055Z AUTO 21003KT 7SM SCT029 SCT037 BKN043 19/18 A2995 RMK AO2 T01880183
KCPK 161035Z AUTO 19005KT 7SM SCT041 18/18 A2995 RMK AO2 LTG DSNT S T01830180
KCPK 161015Z AUTO 21003KT 5SM BR SCT120 19/18 A2994 RMK AO2 T01850180
KCPK 160955Z AUTO 20004KT 7SM SCT120 19/18 A2994 RMK AO2 T01870182
KCPK 160935Z AUTO 21004KT 7SM SCT110 19/19 A2994 RMK AO2 T01910185
KCPK 160915Z AUTO 21004KT 7SM SCT110 19/19 A2994 RMK AO2 T01900185
KCPK 160855Z AUTO 22003KT 5SM BR CLR 18/18 A2994 RMK AO2 T01830181
KCPK 160835Z AUTO 19003KT 5SM BR CLR 18/18 A2994 RMK AO2 T01810179
KCPK 160815Z AUTO 20003KT 5SM BR CLR 18/18 A2994 RMK AO2 T01830180
KCPK 160755Z AUTO 20004KT 5SM BR CLR 18/18 A2994 RMK AO2 T01830180
KCPK 160735Z AUTO 21003KT 7SM CLR 19/18 A2994 RMK AO2 T01870183
KCPK 160715Z AUTO 00000KT 5SM BR CLR 19/18 A2995 RMK AO2 T01850181
KCPK 160655Z AUTO 19005KT 7SM CLR 19/18 A2995 RMK AO2 T01860182
KCPK 160635Z AUTO 20004KT 5SM BR CLR 19/18 A2996 RMK AO2 T01860181
KCPK 160615Z AUTO 20005KT 5SM BR CLR 19/18 A2996 RMK AO2 T01890182
KCPK 160555Z AUTO 19005KT 7SM CLR 19/18 A2996 RMK AO2 T01910183 10219 20190
KCPK 160535Z AUTO 19005KT 7SM CLR 19/19 A2996 RMK AO2 T01910185
KCPK 160515Z AUTO 20005KT 7SM CLR 20/19 A2996 RMK AO2 T01960185
KCPK 160455Z AUTO 21003KT 7SM CLR 20/19 A2997 RMK AO2 T01950185 402670183
KCPK 160435Z AUTO 21005KT 10SM CLR 20/19 A2996 RMK AO2 T01990187
KCPK 160415Z AUTO 18006KT 7SM CLR 20/19 A2997 RMK AO2 T02000187
KCPK 160355Z AUTO 20005KT 7SM CLR 20/19 A2997 RMK AO2 T02000187
KCPK 160335Z AUTO 20005KT 7SM CLR 20/19 A2997 RMK AO2 T02010186
KCPK 160315Z AUTO 19006KT 10SM CLR 20/19 A2997 RMK AO2 T02030185
KCPK 160255Z AUTO 20005KT 7SM CLR 20/18 A2998 RMK AO2 T02040184
KCPK 160235Z AUTO 19007KT 7SM CLR 21/19 A2998 RMK AO2 T02070185
KCPK 160215Z AUTO 19006KT 7SM CLR 21/18 A2998 RMK AO2 T02070182
KCPK 160155Z AUTO 17006KT 7SM CLR 20/18 A2998 RMK AO2 T02030181
KCPK 160135Z AUTO 19006KT 7SM CLR 21/18 A2999 RMK AO2 T02070182
KCPK 160115Z AUTO 18005KT 7SM CLR 21/18 A2999 RMK AO2 T02100183
KCPK 160055Z AUTO 18005KT 7SM CLR 21/19 A2999 RMK AO2 T02140185
KCPK 160035Z AUTO 18006KT 10SM CLR 22/19 A2998 RMK AO2 T02160185
KCPK 160015Z AUTO 17006KT 7SM CLR 22/19 A2999 RMK AO2 T02160186
KCPK 152355Z AUTO 18006KT 7SM CLR 22/19 A2999 RMK AO2 T02200188 10267 20220
KCPK 152335Z AUTO 18006KT 10SM CLR 22/19 A2999 RMK AO2 T02200187
KCPK 152315Z AUTO 17005KT 10SM CLR 23/19 A2998 RMK AO2 T02270187
KCPK 152255Z AUTO 17006KT 10SM CLR 23/19 A2999 RMK AO2 T02310188
KCPK 152235Z AUTO 17007KT 7SM CLR 24/19 A2999 RMK AO2 T02360188
KCPK 152215Z AUTO 16006KT 7SM CLR 24/19 A2999 RMK AO2 T02420190
KCPK 152155Z AUTO 17006KT 5SM HZ CLR 25/19 A2999 RMK AO2 T02470190
KCPK 152135Z AUTO 19006KT 10SM CLR 26/19 A2999 RMK AO2 T02550188
KCPK 152115Z AUTO 19007KT 7SM CLR 26/19 A2999 RMK AO2 T02590189
KCPK 152055Z AUTO 19009KT 10SM CLR 26/19 A3000 RMK AO2 T02620190
KCPK 152035Z AUTO 19009KT 10SM CLR 26/19 A3000 RMK AO2 T02630193
KCPK 152015Z AUTO 19011G15KT 160V220 7SM CLR 27/19 A3000 RMK AO2 T02650194
KCPK 151955Z AUTO 21008KT 7SM CLR 27/19 A3001 RMK AO2 T02650188